This is the latest recevied weather packets stored in our database for station/object KO4LCK. If no packets are shown the sender has not sent any weather packets the latest 10 day(s).
| Time | Temp. | Humidity | Pressure | Rain* | Wind** | Luminosity | Snow |
|---|---|---|---|---|---|---|---|
| 1778087743 | 25° C | 70% | 1014.6 hPa | 0 mm | - | 80 W/m² | - |
| 1778087441 | 25.56° C | 69% | 1014.3 hPa | 0 mm | - | 93 W/m² | - |
| 1778087138 | 25.56° C | 68% | 1014.4 hPa | 0 mm | - | 150 W/m² | - |
| 1778086829 | 25.56° C | 68% | 1014.1 hPa | 0 mm | - | 292 W/m² | - |
| 1778086528 | 25.56° C | 67% | 1014 hPa | 0 mm | - | 319 W/m² | - |
| 1778086223 | 25.56° C | 68% | 1014.1 hPa | 0 mm | - | 294 W/m² | - |
| 1778085920 | 26.11° C | 66% | 1014.4 hPa | 0 mm | - | 427 W/m² | - |
| 1778085618 | 26.11° C | 67% | 1014.3 hPa | 0 mm | - | 379 W/m² | - |
| 1778085314 | 25.56° C | 69% | 1014.4 hPa | 0 mm | - | 937 W/m² | - |
| 1778085010 | 24.44° C | 71% | 1014.4 hPa | 0 mm | - | 832 W/m² | - |
| 1778084706 | 23.33° C | 74% | 1014.5 hPa | 0 mm | - | 728 W/m² | - |
| 1778084397 | 23.33° C | 75% | 1014.8 hPa | 0 mm | - | 195 W/m² | - |
| 1778084095 | 23.33° C | 75% | 1014.8 hPa | 0 mm | - | 135 W/m² | - |
| 1778083793 | 23.33° C | 75% | 1014.9 hPa | 0 mm | - | 142 W/m² | - |
| 1778083490 | 23.33° C | 75% | 1015.1 hPa | 0 mm | - | 144 W/m² | - |
| 1778083187 | 23.89° C | 73% | 1015.1 hPa | 0 mm | - | 142 W/m² | - |
| 1778082885 | 23.33° C | 76% | 1014.9 hPa | 0 mm | - | 233 W/m² | - |
| 1778081776 | 22.78° C | 76% | 1014.9 hPa | 0 mm | - | 419 W/m² | - |
| 1778081474 | 22.78° C | 80% | 1015 hPa | 0 mm | - | 585 W/m² | - |
| 1778081171 | 22.22° C | 82% | 1014.9 hPa | 0 mm | - | 816 W/m² | - |
| 1778080869 | 21.67° C | 85% | 1014.9 hPa | 0 mm | - | 367 W/m² | - |
| 1778080567 | 20.56° C | 87% | 1014.9 hPa | 0 mm | - | 399 W/m² | - |
| 1778080263 | 20.56° C | 88% | 1015.4 hPa | 0 mm | - | 295 W/m² | - |
| 1778079960 | 20° C | 88% | 1015.6 hPa | 0 mm | - | 217 W/m² | - |
| 1778079657 | 20° C | 87% | 1016 hPa | 1.27 mm | - | 107 W/m² | - |
* Rain latest hour (hover to see other rain measurements)
** Current wind speed in m/s (hover to see current wind gust speed)